createdAt,value
2018-02-11T00:02:17.112Z,96547.23
2018-02-11T00:04:43.106Z,96551.76
2018-02-11T00:07:09.120Z,96539.13
2018-02-11T00:09:35.188Z,96544.34
2018-02-11T00:12:01.185Z,96541.22
2018-02-11T00:14:27.556Z,96537.45
2018-02-11T00:16:53.562Z,96537.19
2018-02-11T00:19:19.633Z,96533.67
2018-02-11T00:21:45.662Z,96522.09
2018-02-11T00:24:11.601Z,96526.39
2018-02-11T00:26:37.671Z,96528.47
2018-02-11T00:29:03.638Z,96526.13
2018-02-11T00:31:30.026Z,96525.34
2018-02-11T00:33:56.069Z,96522.09
2018-02-11T00:36:22.078Z,96521.97
2018-02-11T00:38:48.096Z,96521.70
2018-02-11T00:41:14.100Z,96521.05
2018-02-11T00:43:40.444Z,96517.02
2018-02-11T00:46:06.432Z,96517.02
2018-02-11T00:48:32.413Z,96514.55
2018-02-11T00:50:58.429Z,96509.86
2018-02-11T00:53:24.423Z,96518.09
2018-02-11T00:55:50.453Z,96512.20
2018-02-11T00:58:16.465Z,96518.61
2018-02-11T01:00:42.525Z,96516.52
2018-02-11T01:03:08.464Z,96513.27
2018-02-11T01:05:34.881Z,96512.88
2018-02-11T01:08:00.885Z,96512.74
2018-02-11T01:10:26.826Z,96507.55
2018-02-11T01:12:52.903Z,96504.27
2018-02-11T01:15:18.945Z,96504.02
2018-02-11T01:17:45.008Z,96509.63
2018-02-11T01:20:10.981Z,96500.78
2018-02-11T01:22:37.287Z,96499.45
2018-02-11T01:25:03.272Z,96501.80
2018-02-11T01:27:29.297Z,96499.98
2018-02-11T01:29:55.352Z,96494.78
2018-02-11T01:32:21.460Z,96498.94
2018-02-11T01:34:47.816Z,96493.87
2018-02-11T01:37:13.841Z,96488.27
2018-02-11T01:39:39.830Z,96478.91
2018-02-11T01:42:05.854Z,96473.18
2018-02-11T01:44:31.877Z,96467.06
2018-02-11T01:46:58.235Z,96463.94
2018-02-11T01:49:24.228Z,96457.30
2018-02-11T01:51:50.257Z,96455.62
2018-02-11T01:54:16.300Z,96457.44
2018-02-11T01:56:42.349Z,96456.00
2018-02-11T01:59:08.325Z,96450.53
2018-02-11T02:01:34.416Z,96451.59
2018-02-11T02:04:00.401Z,96448.06
2018-02-11T02:06:26.872Z,96446.63
2018-02-11T02:08:52.907Z,96443.01
2018-02-11T02:11:18.893Z,96435.98
2018-02-11T02:13:44.929Z,96426.21
2018-02-11T02:16:10.941Z,96427.00
2018-02-11T02:18:36.953Z,96424.01
2018-02-11T02:21:02.966Z,96416.22
2018-02-11T02:23:29.345Z,96416.72
2018-02-11T02:25:55.380Z,96408.39
2018-02-11T02:28:21.392Z,96413.85
2018-02-11T02:30:47.504Z,96403.32
2018-02-11T02:33:13.437Z,96398.00
2018-02-11T02:35:39.884Z,96400.05
2018-02-11T02:38:05.856Z,96393.83
2018-02-11T02:40:31.853Z,96387.97
2018-02-11T02:42:57.865Z,96389.80
2018-02-11T02:45:23.880Z,96382.76
2018-02-11T02:47:50.273Z,96384.19
2018-02-11T02:50:16.325Z,96372.48
2018-02-11T02:52:42.348Z,96368.19
2018-02-11T02:55:08.377Z,96360.00
2018-02-11T02:57:34.449Z,96351.40
2018-02-11T03:00:00.849Z,96349.72
2018-02-11T03:02:26.863Z,96348.80
2018-02-11T03:04:52.860Z,96350.48
2018-02-11T03:07:18.881Z,96348.51
2018-02-11T03:09:44.865Z,96334.73
2018-02-11T03:12:11.261Z,96332.41
2018-02-11T03:14:37.276Z,96335.14
2018-02-11T03:17:03.276Z,96338.27
2018-02-11T03:19:29.289Z,96328.11
2018-02-11T03:21:55.326Z,96328.87
2018-02-11T03:24:21.700Z,96325.61
2018-02-11T03:26:47.702Z,96321.84
2018-02-11T03:29:13.679Z,96317.30
2018-02-11T03:31:39.628Z,96317.17
2018-02-11T03:34:05.625Z,96311.58
2018-02-11T03:36:32.029Z,96311.30
2018-02-11T03:38:58.074Z,96309.61
2018-02-11T03:41:24.152Z,96293.39
2018-02-11T03:43:50.174Z,96303.48
2018-02-11T03:46:16.150Z,96299.21
2018-02-11T03:48:42.581Z,96294.78
2018-02-11T03:51:08.576Z,96300.51
2018-02-11T03:53:34.672Z,96291.41
2018-02-11T03:56:00.708Z,96296.59
2018-02-11T03:58:26.714Z,96282.69
2018-02-11T04:00:53.068Z,96285.67
2018-02-11T04:03:19.076Z,96280.48
2018-02-11T04:05:45.072Z,96278.40
2018-02-11T04:08:11.104Z,96288.16
2018-02-11T04:10:37.129Z,96281.65
2018-02-11T04:13:03.553Z,96281.65
2018-02-11T04:15:29.566Z,96277.86
2018-02-11T04:17:55.556Z,96275.27
2018-02-11T04:20:21.557Z,96274.35
2018-02-11T04:22:47.557Z,96271.23
2018-02-11T04:25:13.557Z,96268.62
2018-02-11T04:27:39.556Z,96264.31
2018-02-11T04:30:05.584Z,96264.18
2018-02-11T04:32:31.678Z,96260.95
2018-02-11T04:34:57.673Z,96256.77
2018-02-11T04:37:24.088Z,96245.20
2018-02-11T04:39:50.093Z,96245.20
2018-02-11T04:42:16.091Z,96248.83
2018-02-11T04:44:42.120Z,96247.38
2018-02-11T04:47:08.144Z,96244.80
2018-02-11T04:49:34.170Z,96246.08
2018-02-11T04:52:00.244Z,96246.20
2018-02-11T04:54:26.649Z,96240.84
2018-02-11T04:56:52.629Z,96237.84
2018-02-11T04:59:18.628Z,96239.03
2018-02-11T05:01:44.691Z,96230.58
2018-02-11T05:04:10.758Z,96233.92
2018-02-11T05:06:37.133Z,96227.68
2018-02-11T05:09:03.101Z,96218.48
2018-02-11T05:11:29.144Z,96217.56
2018-02-11T05:13:55.149Z,96221.47
2018-02-11T05:16:21.157Z,96222.90
2018-02-11T05:18:47.175Z,96213.95
2018-02-11T05:21:13.144Z,96212.11
2018-02-11T05:23:39.501Z,96211.62
2018-02-11T05:26:05.482Z,96209.12
2018-02-11T05:28:31.484Z,96195.86
2018-02-11T05:30:57.497Z,96205.87
2018-02-11T05:33:23.478Z,96203.66
2018-02-11T05:35:49.493Z,96196.88
2018-02-11T05:38:15.533Z,96190.14
2018-02-11T05:40:41.525Z,96185.95
2018-02-11T05:43:07.540Z,96186.48
2018-02-11T05:45:33.930Z,96174.66
2018-02-11T05:48:00.048Z,96179.05
2018-02-11T05:50:26.050Z,96174.13
2018-02-11T05:52:52.048Z,96168.02
2018-02-11T05:55:18.053Z,96171.39
2018-02-11T05:57:44.052Z,96168.55
2018-02-11T06:00:10.072Z,96168.79
2018-02-11T06:02:36.518Z,96167.53
2018-02-11T06:05:02.621Z,96161.06
2018-02-11T06:07:28.605Z,96163.88
2018-02-11T06:09:54.622Z,96158.41
2018-02-11T06:12:20.678Z,96162.58
2018-02-11T06:14:47.048Z,96162.70
2018-02-11T06:17:13.054Z,96155.69
2018-02-11T06:19:39.005Z,96158.81
2018-02-11T06:22:05.016Z,96151.07
2018-02-11T06:24:31.044Z,96161.77
2018-02-11T06:26:57.044Z,96159.49
2018-02-11T06:29:23.174Z,96154.39
2018-02-11T06:31:49.644Z,96156.72
2018-02-11T06:34:15.586Z,96153.11
2018-02-11T06:36:41.563Z,96146.09
2018-02-11T06:39:07.583Z,96149.96
2018-02-11T06:41:33.580Z,96139.84
2018-02-11T06:43:59.596Z,96136.61
2018-02-11T06:46:25.593Z,96131.66
2018-02-11T06:48:51.947Z,96128.36
2018-02-11T06:51:17.999Z,96122.92
2018-02-11T06:53:43.996Z,96125.27
2018-02-11T06:56:10.049Z,96116.83
2018-02-11T06:58:36.059Z,96113.84
2018-02-11T07:01:02.108Z,96108.34
2018-02-11T07:03:28.064Z,96108.77
2018-02-11T07:05:54.082Z,96105.28
2018-02-11T07:08:20.104Z,96106.69
2018-02-11T07:10:46.168Z,96100.57
2018-02-11T07:13:12.592Z,96100.42
2018-02-11T07:15:38.672Z,96096.91
2018-02-11T07:18:04.704Z,96092.56
2018-02-11T07:20:30.767Z,96095.73
2018-02-11T07:22:56.818Z,96096.38
2018-02-11T07:25:22.822Z,96099.34
2018-02-11T07:27:48.849Z,96094.80
2018-02-11T07:30:14.884Z,96088.86
2018-02-11T07:32:40.860Z,96087.22
2018-02-11T07:35:07.224Z,96086.14
2018-02-11T07:37:33.201Z,96074.57
2018-02-11T07:39:59.338Z,96082.36
2018-02-11T07:42:25.328Z,96073.45
2018-02-11T07:44:51.373Z,96072.14
2018-02-11T07:47:17.440Z,96070.18
2018-02-11T07:49:43.461Z,96065.72
2018-02-11T07:52:09.897Z,96055.72
2018-02-11T07:54:35.901Z,96056.13
2018-02-11T07:57:01.894Z,96058.16
2018-02-11T07:59:27.920Z,96052.31
2018-02-11T08:01:53.920Z,96046.58
2018-02-11T08:04:19.944Z,96041.73
2018-02-11T08:06:45.925Z,96047.80
2018-02-11T08:09:11.917Z,96047.83
2018-02-11T08:11:37.914Z,96054.91
2018-02-11T08:14:04.328Z,96048.23
2018-02-11T08:16:30.396Z,96047.49
2018-02-11T08:18:56.343Z,96041.38
2018-02-11T08:24:15.413Z,96020.90
2018-02-11T08:26:41.429Z,96016.99
2018-02-11T08:29:07.453Z,96008.20
2018-02-11T08:31:33.493Z,96013.44
2018-02-11T08:33:59.477Z,96009.09
2018-02-11T08:36:25.913Z,96003.64
2018-02-11T08:38:52.070Z,96005.70
2018-02-11T08:41:18.125Z,96000.10
2018-02-11T08:43:44.139Z,96002.22
2018-02-11T08:46:10.180Z,96008.38
2018-02-11T08:48:36.564Z,95996.27
2018-02-11T08:51:02.594Z,95997.69
2018-02-11T08:53:28.619Z,95994.77
2018-02-11T08:55:54.664Z,95992.49
2018-02-11T08:58:20.687Z,95988.19
2018-02-11T09:00:46.727Z,95982.84
2018-02-11T09:03:12.717Z,95974.20
2018-02-11T09:05:39.121Z,95971.88
2018-02-11T09:08:05.136Z,95962.12
2018-02-11T09:10:31.193Z,95962.62
2018-02-11T09:12:57.164Z,95950.39
2018-02-11T09:15:23.226Z,95951.06
2018-02-11T09:17:49.275Z,95953.14
2018-02-11T09:20:15.265Z,95951.25
2018-02-11T09:22:41.621Z,95944.45
2018-02-11T09:25:07.638Z,95951.05
2018-02-11T09:27:33.603Z,95951.48
2018-02-11T09:29:59.612Z,95939.89
2018-02-11T09:32:25.645Z,95939.91
2018-02-11T09:34:51.793Z,95934.09
2018-02-11T09:37:17.769Z,95919.17
2018-02-11T09:39:44.147Z,95932.36
2018-02-11T09:42:10.168Z,95925.92
2018-02-11T09:44:36.200Z,95926.84
2018-02-11T09:47:02.188Z,95924.77
2018-02-11T09:49:28.189Z,95927.77
2018-02-11T09:51:54.248Z,95920.22
2018-02-11T09:54:20.307Z,95927.48
2018-02-11T09:56:46.317Z,95929.70
2018-02-11T09:59:12.345Z,95922.16
2018-02-11T10:01:38.353Z,95916.08
2018-02-11T10:04:04.859Z,95907.39
2018-02-11T10:06:30.877Z,95908.64
2018-02-11T10:08:56.903Z,95909.98
2018-02-11T10:11:22.873Z,95903.69
2018-02-11T10:13:48.873Z,95899.63
2018-02-11T10:16:14.957Z,95899.28
2018-02-11T10:18:40.941Z,95911.85
2018-02-11T10:21:07.269Z,95910.23
2018-02-11T10:23:33.280Z,95908.03
2018-02-11T10:25:59.225Z,95905.00
2018-02-11T10:28:25.246Z,95899.11
2018-02-11T10:30:51.275Z,95896.06
2018-02-11T10:33:17.299Z,95894.08
2018-02-11T10:35:43.304Z,95882.43
2018-02-11T10:38:09.733Z,95884.17
2018-02-11T10:40:35.746Z,95877.41
2018-02-11T10:43:01.756Z,95867.88
2018-02-11T10:45:27.800Z,95872.34
2018-02-11T10:47:53.845Z,95867.70
2018-02-11T10:50:19.868Z,95866.60
2018-02-11T10:52:45.794Z,95867.67
2018-02-11T10:55:12.221Z,95869.41
2018-02-11T10:57:39.069Z,95863.86
2018-02-11T11:00:05.097Z,95865.30
2018-02-11T11:02:31.129Z,95852.17
2018-02-11T11:04:57.082Z,95848.16
2018-02-11T11:07:23.129Z,95839.74
2018-02-11T11:09:49.149Z,95842.44
2018-02-11T11:12:15.518Z,95839.95
2018-02-11T11:14:41.533Z,95834.27
2018-02-11T11:17:07.536Z,95836.47
2018-02-11T11:19:33.501Z,95832.46
2018-02-11T11:21:59.501Z,95829.94
2018-02-11T11:24:25.861Z,95824.69
2018-02-11T11:26:51.889Z,95828.85
2018-02-11T11:29:18.241Z,95829.00
2018-02-11T11:31:44.257Z,95820.38
2018-02-11T11:34:10.225Z,95821.39
2018-02-11T11:36:36.296Z,95804.88
2018-02-11T11:39:02.326Z,95814.00
2018-02-11T11:41:28.328Z,95818.33
2018-02-11T11:43:54.335Z,95808.78
2018-02-11T11:46:20.692Z,95804.81
2018-02-11T11:48:46.748Z,95802.45
2018-02-11T11:51:12.721Z,95799.91
2018-02-11T11:53:38.756Z,95798.84
2018-02-11T11:56:04.737Z,95796.67
2018-02-11T11:58:30.761Z,95795.44
2018-02-11T12:00:56.912Z,95794.11
2018-02-11T12:03:22.913Z,95784.84
2018-02-11T12:05:48.961Z,95782.86
2018-02-11T12:08:15.309Z,95782.78
2018-02-11T12:10:41.303Z,95785.39
2018-02-11T12:13:07.301Z,95785.25
2018-02-11T12:15:33.314Z,95782.64
2018-02-11T12:17:59.337Z,95780.92
2018-02-11T12:20:25.385Z,95778.44
2018-02-11T12:22:51.385Z,95780.59
2018-02-11T12:25:17.737Z,95777.02
2018-02-11T12:27:43.734Z,95769.33
2018-02-11T12:30:09.733Z,95764.60
2018-02-11T12:32:35.741Z,95761.52
2018-02-11T12:35:01.737Z,95763.27
2018-02-11T12:37:27.723Z,95762.11
2018-02-11T12:39:53.760Z,95760.66
2018-02-11T12:42:19.762Z,95752.94
2018-02-11T12:44:46.114Z,95755.64
2018-02-11T12:47:12.118Z,95747.63
2018-02-11T12:49:38.163Z,95751.44
2018-02-11T12:52:04.231Z,95748.84
2018-02-11T12:54:30.269Z,95748.31
2018-02-11T12:56:56.633Z,95744.94
2018-02-11T12:59:22.645Z,95745.19
2018-02-11T13:01:48.660Z,95746.48
2018-02-11T13:04:14.700Z,95744.52
2018-02-11T13:06:40.660Z,95744.70
2018-02-11T13:09:06.689Z,95734.56
2018-02-11T13:11:32.684Z,95731.81
2018-02-11T13:13:58.981Z,95733.70
2018-02-11T13:16:24.980Z,95737.31
2018-02-11T13:18:50.997Z,95744.60
2018-02-11T13:21:17.052Z,95735.97
2018-02-11T13:23:43.073Z,95739.20
2018-02-11T13:26:09.262Z,95739.06
2018-02-11T13:28:35.273Z,95730.23
2018-02-11T13:31:01.596Z,95730.77
2018-02-11T13:33:27.681Z,95729.88
2018-02-11T13:35:53.696Z,95726.42
2018-02-11T13:38:19.645Z,95727.48
2018-02-11T13:40:45.657Z,95734.48
2018-02-11T13:43:11.711Z,95733.80
2018-02-11T13:45:37.785Z,95732.74
2018-02-11T13:48:03.798Z,95722.85
2018-02-11T13:50:29.796Z,95726.08
2018-02-11T13:52:56.147Z,95726.13
2018-02-11T13:55:22.245Z,95729.88
2018-02-11T13:57:48.273Z,95725.89
2018-02-11T14:00:14.345Z,95727.63
2018-02-11T14:02:40.365Z,95726.99
2018-02-11T14:05:06.381Z,95723.95
2018-02-11T14:07:32.428Z,95716.14
2018-02-11T14:09:58.765Z,95718.26
2018-02-11T14:12:24.784Z,95715.67
2018-02-11T14:14:50.828Z,95716.73
2018-02-11T14:17:16.889Z,95721.02
2018-02-11T14:19:42.890Z,95715.38
2018-02-11T14:22:08.962Z,95720.16
2018-02-11T14:24:34.995Z,95711.80
2018-02-11T14:27:01.437Z,95711.03
2018-02-11T14:29:27.603Z,95714.98
2018-02-11T14:31:53.588Z,95715.80
2018-02-11T14:34:19.669Z,95705.38
2018-02-11T14:36:45.692Z,95709.54
2018-02-11T14:39:11.795Z,95708.03
2018-02-11T14:41:37.806Z,95706.24
2018-02-11T14:44:03.822Z,95707.26
2018-02-11T14:46:29.813Z,95714.36
2018-02-11T14:48:56.253Z,95704.46
2018-02-11T14:51:22.249Z,95706.92
2018-02-11T14:53:48.257Z,95688.74
2018-02-11T14:56:14.305Z,95706.30
2018-02-11T14:58:40.310Z,95713.53
2018-02-11T15:01:06.350Z,95721.16
2018-02-11T15:03:32.365Z,95714.35
2018-02-11T15:05:58.734Z,95713.88
2018-02-11T15:08:24.848Z,95714.84
2018-02-11T15:10:50.863Z,95719.38
2018-02-11T15:13:16.925Z,95718.80
2018-02-11T15:15:43.284Z,95708.77
2018-02-11T15:18:09.343Z,95708.32
2018-02-11T15:20:35.340Z,95718.45
2018-02-11T15:23:01.742Z,95711.89
2018-02-11T15:25:27.717Z,95724.23
2018-02-11T15:27:53.672Z,95713.48
2018-02-11T15:30:19.695Z,95716.09
2018-02-11T15:32:46.557Z,95721.11
2018-02-11T15:35:12.632Z,95724.39
2018-02-11T15:37:38.641Z,95716.58
2018-02-11T15:40:04.728Z,95713.05
2018-02-11T15:42:30.732Z,95716.73
2018-02-11T15:44:57.212Z,95717.09
2018-02-11T15:47:30.101Z,95716.04
2018-02-11T15:49:56.102Z,95722.06
2018-02-11T15:52:22.124Z,95723.33
2018-02-11T15:54:48.163Z,95720.58
2018-02-11T15:57:14.170Z,95719.91
2018-02-11T15:59:40.244Z,95718.21
2018-02-11T16:02:06.649Z,95711.98
2018-02-11T16:04:32.630Z,95717.78
2018-02-11T16:06:58.630Z,95723.42
2018-02-11T16:09:24.675Z,95717.93
2018-02-11T16:11:50.689Z,95714.55
2018-02-11T16:14:16.716Z,95720.53
2018-02-11T16:16:42.844Z,95718.69
2018-02-11T16:19:09.529Z,95718.06
2018-02-11T16:21:35.545Z,95718.08
2018-02-11T16:24:01.595Z,95714.67
2018-02-11T16:26:27.836Z,95716.72
2018-02-11T16:28:53.811Z,95723.53
2018-02-11T16:31:19.829Z,95724.06
2018-02-11T16:33:45.817Z,95720.73
2018-02-11T16:36:11.860Z,95723.05
2018-02-11T16:38:37.837Z,95720.20
2018-02-11T16:41:04.182Z,95716.19
2018-02-11T16:43:30.292Z,95720.58
2018-02-11T16:45:56.305Z,95720.58
2018-02-11T16:48:22.287Z,95724.00
2018-02-11T16:50:48.328Z,95717.87
2018-02-11T16:53:14.396Z,95723.77
2018-02-11T16:55:40.415Z,95730.09
2018-02-11T16:58:06.469Z,95728.72
2018-02-11T17:00:32.625Z,95727.81
2018-02-11T17:02:59.025Z,95729.64
2018-02-11T17:05:25.404Z,95721.97
2018-02-11T17:07:51.393Z,95723.81
2018-02-11T17:10:17.470Z,95722.31
2018-02-11T17:12:43.441Z,95720.39
2018-02-11T17:15:09.460Z,95727.67
2018-02-11T17:17:35.517Z,95727.33
2018-02-11T17:20:02.187Z,95730.03
2018-02-11T17:22:28.181Z,95728.53
2018-02-11T17:24:54.184Z,95724.53
2018-02-11T17:27:20.236Z,95732.48
2018-02-11T17:29:46.207Z,95739.39
2018-02-11T17:32:12.202Z,95742.38
2018-02-11T17:34:38.273Z,95740.03
2018-02-11T17:37:04.250Z,95741.91
2018-02-11T17:39:30.717Z,95746.88
2018-02-11T17:41:56.789Z,95745.86
2018-02-11T17:44:22.792Z,95756.14
2018-02-11T17:46:48.794Z,95756.67
2018-02-11T17:49:14.821Z,95751.89
2018-02-11T17:51:40.921Z,95744.17
2018-02-11T17:54:06.960Z,95748.08
2018-02-11T17:56:32.986Z,95749.34
2018-02-11T17:58:59.081Z,95746.23
2018-02-11T18:01:25.223Z,95739.82
2018-02-11T18:03:51.256Z,95742.39
2018-02-11T18:06:17.277Z,95748.32
2018-02-11T18:08:43.639Z,95749.09
2018-02-11T18:11:09.630Z,95748.56
2018-02-11T18:13:35.689Z,95753.45
2018-02-11T18:16:01.676Z,95752.23
2018-02-11T18:18:27.698Z,95754.02
2018-02-11T18:20:53.728Z,95753.88
2018-02-11T18:23:19.748Z,95751.98
2018-02-11T18:25:46.073Z,95754.84
2018-02-11T18:28:12.088Z,95757.73
2018-02-11T18:30:38.076Z,95757.35
2018-02-11T18:33:04.117Z,95757.64
2018-02-11T18:35:30.152Z,95763.63
2018-02-11T18:37:56.212Z,95761.11
2018-02-11T18:40:22.226Z,95767.62
2018-02-11T18:42:48.717Z,95762.61
2018-02-11T18:45:14.772Z,95766.04
2018-02-11T18:47:40.906Z,95762.91
2018-02-11T18:50:06.925Z,95764.64
2018-02-11T18:52:32.933Z,95757.48
2018-02-11T18:54:59.079Z,95760.48
2018-02-11T18:57:25.101Z,95768.45
2018-02-11T18:59:51.489Z,95759.28
2018-02-11T19:02:17.505Z,95760.43
2018-02-11T19:04:43.516Z,95763.03
2018-02-11T19:07:09.566Z,95763.66
2018-02-11T19:09:35.658Z,95761.13
2018-02-11T19:12:01.665Z,95769.86
2018-02-11T19:14:27.657Z,95757.59
2018-02-11T19:16:53.969Z,95763.20
2018-02-11T19:19:20.044Z,95765.26
2018-02-11T19:21:46.052Z,95764.44
2018-02-11T19:24:12.092Z,95765.70
2018-02-11T19:26:38.159Z,95769.08
2018-02-11T19:29:04.153Z,95763.86
2018-02-11T19:31:30.180Z,95766.85
2018-02-11T19:33:56.586Z,95768.88
2018-02-11T19:36:22.588Z,95761.40
2018-02-11T19:38:48.845Z,95767.24
2018-02-11T19:41:14.862Z,95774.05
2018-02-11T19:43:40.920Z,95770.42
2018-02-11T19:46:07.021Z,95774.05
2018-02-11T19:48:33.072Z,95776.22
2018-02-11T19:50:59.475Z,95772.50
2018-02-11T19:53:25.497Z,95770.72
2018-02-11T19:55:51.593Z,95777.23
2018-02-11T19:58:17.602Z,95782.70
2018-02-11T20:00:43.602Z,95782.59
2018-02-11T20:03:09.628Z,95790.52
2018-02-11T20:05:35.668Z,95782.41
2018-02-11T20:08:02.054Z,95790.66
2018-02-11T20:10:28.052Z,95792.11
2018-02-11T20:12:54.044Z,95795.78
2018-02-11T20:15:20.154Z,95806.28
2018-02-11T20:17:46.173Z,95808.36
2018-02-11T20:20:12.315Z,95819.33
2018-02-11T20:22:38.351Z,95815.62
2018-02-11T20:25:04.406Z,95826.09
2018-02-11T20:27:30.451Z,95827.48
2018-02-11T20:29:56.470Z,95825.75
2018-02-11T20:32:22.929Z,95832.94
2018-02-11T20:34:48.933Z,95839.55
2018-02-11T20:37:15.012Z,95830.73
2018-02-11T20:39:41.056Z,95834.68
2018-02-11T20:42:07.050Z,95826.09
2018-02-11T20:44:33.472Z,95830.33
2018-02-11T20:46:59.492Z,95829.13
2018-02-11T20:49:25.476Z,95832.47
2018-02-11T20:51:51.487Z,95835.85
2018-02-11T20:54:17.482Z,95838.50
2018-02-11T20:56:43.581Z,95836.42
2018-02-11T20:59:09.613Z,95841.80
2018-02-11T21:01:36.015Z,95842.27
2018-02-11T21:04:02.036Z,95837.58
2018-02-11T21:06:28.017Z,95849.62
2018-02-11T21:08:54.057Z,95848.22
2018-02-11T21:11:20.054Z,95847.30
2018-02-11T21:13:46.389Z,95860.52
2018-02-11T21:16:12.427Z,95852.26
2018-02-11T21:18:38.451Z,95865.83
2018-02-11T21:21:04.480Z,95860.23
2018-02-11T21:23:30.492Z,95860.52
2018-02-11T21:25:56.838Z,95862.98
2018-02-11T21:28:22.808Z,95867.08
2018-02-11T21:30:48.878Z,95868.14
2018-02-11T21:33:14.925Z,95877.17
2018-02-11T21:35:41.967Z,95877.66
2018-02-11T21:38:07.983Z,95876.45
2018-02-11T21:40:34.041Z,95884.52
2018-02-11T21:43:01.144Z,95886.31
2018-02-11T21:45:27.210Z,95886.98
2018-02-11T21:47:53.199Z,95892.43
2018-02-11T21:50:19.249Z,95889.68
2018-02-11T21:52:45.259Z,95890.83
2018-02-11T21:55:11.321Z,95891.61
2018-02-11T21:57:37.402Z,95892.48
2018-02-11T22:00:03.806Z,95896.72
2018-02-11T22:02:29.832Z,95895.77
2018-02-11T22:04:55.825Z,95900.80
2018-02-11T22:07:21.864Z,95903.30
2018-02-11T22:09:47.884Z,95902.23
2018-02-11T22:12:13.931Z,95903.64
2018-02-11T22:14:39.984Z,95905.91
2018-02-11T22:17:06.289Z,95910.88
2018-02-11T22:19:32.311Z,95918.31
2018-02-11T22:21:58.272Z,95914.36
2018-02-11T22:24:24.316Z,95916.30
2018-02-11T22:26:50.350Z,95917.06
2018-02-11T22:29:16.381Z,95918.75
2018-02-11T22:31:42.369Z,95927.20
2018-02-11T22:34:08.405Z,95927.00
2018-02-11T22:36:34.421Z,95932.31
2018-02-11T22:39:00.415Z,95936.19
2018-02-11T22:41:26.871Z,95939.89
2018-02-11T22:43:52.936Z,95942.46
2018-02-11T22:46:18.945Z,95942.46
2018-02-11T22:48:44.975Z,95944.60
2018-02-11T22:51:10.999Z,95955.22
2018-02-11T22:53:37.020Z,95955.25
2018-02-11T22:56:03.112Z,95957.72
2018-02-11T22:58:29.563Z,95948.80
2018-02-11T23:00:55.577Z,95952.75
2018-02-11T23:03:21.580Z,95958.70
2018-02-11T23:05:47.591Z,95963.42
2018-02-11T23:08:13.600Z,95964.23
2018-02-11T23:10:39.615Z,95964.48
2018-02-11T23:13:05.633Z,95967.66
2018-02-11T23:15:32.026Z,95965.95
2018-02-11T23:17:58.049Z,95962.75
2018-02-11T23:20:24.072Z,95967.34
2018-02-11T23:22:50.069Z,95975.20
2018-02-11T23:25:16.046Z,95969.45
2018-02-11T23:27:42.064Z,95976.79
2018-02-11T23:30:08.072Z,95975.77
2018-02-11T23:32:34.404Z,95973.80
2018-02-11T23:35:00.395Z,95978.88
2018-02-11T23:37:26.419Z,95976.93
2018-02-11T23:39:52.452Z,95972.36
2018-02-11T23:42:18.475Z,95972.67
2018-02-11T23:44:44.547Z,95983.06
2018-02-11T23:47:10.573Z,95983.84
2018-02-11T23:49:36.569Z,95977.57
2018-02-11T23:52:02.571Z,95983.30
2018-02-11T23:54:28.963Z,95984.04
2018-02-11T23:56:54.996Z,95990.17
2018-02-11T23:59:21.055Z,95990.98
